Terminal Aerodrome Forecast
Issued by NWS

Home | Current Version | Previous Version | Text Only | Print | Product List | Glossary On
Versions: 1 2 3 4 5 6 7 8 9 10 11 12
000
FTUS44 KEPZ 262300 RRA
TAFLRU
TAF
KLRU 262331Z 2700/2724 33006KT P6SM VCSH SCT060 BKN100 OVC200
      TEMPO 2708/2712 6SM -SHRA BKN040 OVC100
     FM271300 06007KT P6SM VCSH BKN050 BKN100 OVC200
     FM272000 28005KT P6SM SCT050 BKN100 BKN180=

USA.gov is the U.S. government's official web portal to all federal, state and local government web resources and services.